createdAt,value
2022-07-30T00:00:29.577Z,1.30
2022-07-30T00:02:57.760Z,1.30
2022-07-30T00:05:29.270Z,1.27
2022-07-30T00:07:59.273Z,2.10
2022-07-30T00:10:27.968Z,1.73
2022-07-30T00:12:57.367Z,1.98
2022-07-30T00:15:25.904Z,2.17
2022-07-30T00:17:54.109Z,2.33
2022-07-30T00:20:23.376Z,2.10
2022-07-30T00:22:56.725Z,1.88
2022-07-30T00:25:26.577Z,1.60
2022-07-30T00:27:54.884Z,2.25
2022-07-30T00:30:23.632Z,1.92
2022-07-30T00:32:52.208Z,1.98
2022-07-30T00:35:20.555Z,2.10
2022-07-30T00:37:48.787Z,1.77
2022-07-30T00:40:17.108Z,2.75
2022-07-30T00:42:48.552Z,2.13
2022-07-30T00:45:19.266Z,2.00
2022-07-30T00:47:47.739Z,2.20
2022-07-30T00:50:17.015Z,3.00
2022-07-30T00:52:45.628Z,3.03
2022-07-30T00:55:15.430Z,2.92
2022-07-30T00:57:44.312Z,3.35
2022-07-30T01:00:17.149Z,2.45
2022-07-30T01:02:45.485Z,3.03
2022-07-30T01:05:13.912Z,2.83
2022-07-30T01:07:42.262Z,2.97
2022-07-30T01:10:13.935Z,3.80
2022-07-30T01:12:43.554Z,3.60
2022-07-30T01:15:14.209Z,4.45
2022-07-30T01:17:42.628Z,4.03
2022-07-30T01:20:16.360Z,4.00
2022-07-30T01:22:53.666Z,3.47
2022-07-30T01:25:32.268Z,4.20
2022-07-30T01:28:06.490Z,3.42
2022-07-30T01:30:39.929Z,3.60
2022-07-30T01:33:12.017Z,3.30
2022-07-30T01:35:41.566Z,3.53
2022-07-30T01:38:14.433Z,3.88
2022-07-30T01:40:46.013Z,3.42
2022-07-30T01:43:17.315Z,3.55
2022-07-30T01:45:47.788Z,3.47
2022-07-30T01:48:20.309Z,3.13
2022-07-30T01:50:55.782Z,3.95
2022-07-30T01:53:27.079Z,3.67
2022-07-30T01:55:56.658Z,2.90
2022-07-30T01:58:29.089Z,2.60
2022-07-30T02:00:59.079Z,2.78
2022-07-30T02:03:27.986Z,2.53
2022-07-30T02:06:02.169Z,3.20
2022-07-30T02:08:40.260Z,2.58
2022-07-30T02:11:10.555Z,2.63
2022-07-30T02:13:46.544Z,2.80
2022-07-30T02:16:21.282Z,2.88
2022-07-30T02:18:58.778Z,2.58
2022-07-30T02:21:36.705Z,2.20
2022-07-30T02:24:07.262Z,2.22
2022-07-30T02:26:39.659Z,2.30
2022-07-30T02:29:11.584Z,1.85
2022-07-30T02:31:42.126Z,1.83
2022-07-30T02:34:12.354Z,2.75
2022-07-30T02:36:43.403Z,3.13
2022-07-30T02:39:14.864Z,3.05
2022-07-30T02:41:49.482Z,2.55
2022-07-30T02:44:21.491Z,2.72
2022-07-30T02:46:51.437Z,2.80
2022-07-30T02:49:22.567Z,2.70
2022-07-30T02:51:52.149Z,2.60
2022-07-30T02:54:22.149Z,2.42
2022-07-30T02:56:53.226Z,1.90
2022-07-30T02:59:23.627Z,1.98
2022-07-30T03:01:53.645Z,2.30
2022-07-30T03:04:22.875Z,2.30
2022-07-30T03:06:52.625Z,2.50
2022-07-30T03:09:21.644Z,2.40
2022-07-30T03:11:52.951Z,2.25
2022-07-30T03:14:23.248Z,2.08
2022-07-30T03:16:57.630Z,2.65
2022-07-30T03:19:29.208Z,2.42
2022-07-30T03:21:58.447Z,2.50
2022-07-30T03:24:28.641Z,2.10
2022-07-30T03:26:58.672Z,2.22
2022-07-30T03:29:30.337Z,2.38
2022-07-30T03:31:59.907Z,1.98
2022-07-30T03:34:29.119Z,2.30
2022-07-30T03:36:59.909Z,1.98
2022-07-30T03:39:29.737Z,1.90
2022-07-30T03:41:59.453Z,1.65
2022-07-30T03:44:30.500Z,1.70
2022-07-30T03:46:59.642Z,1.80
2022-07-30T03:49:29.665Z,1.40
2022-07-30T03:51:59.115Z,1.73
2022-07-30T03:54:29.529Z,1.63
2022-07-30T03:56:58.378Z,1.55
2022-07-30T03:59:28.392Z,1.90
2022-07-30T04:02:07.558Z,2.03
2022-07-30T04:04:36.622Z,1.83
2022-07-30T04:07:05.292Z,1.65
2022-07-30T04:09:33.542Z,1.63
2022-07-30T04:12:02.285Z,1.70
2022-07-30T04:14:41.855Z,1.75
2022-07-30T04:17:16.603Z,1.92
2022-07-30T04:19:51.699Z,2.45
2022-07-30T04:22:29.246Z,2.38
2022-07-30T04:24:59.982Z,2.17
2022-07-30T04:27:29.520Z,1.80
2022-07-30T04:29:59.289Z,2.00
2022-07-30T04:32:27.966Z,2.20
2022-07-30T04:34:57.722Z,2.03
2022-07-30T04:37:29.061Z,2.55
2022-07-30T04:39:58.518Z,2.28
2022-07-30T04:42:27.418Z,2.30
2022-07-30T04:44:57.252Z,2.60
2022-07-30T04:47:27.091Z,1.88
2022-07-30T04:49:56.549Z,2.38
2022-07-30T04:52:26.473Z,2.40
2022-07-30T04:54:57.917Z,2.03
2022-07-30T04:57:28.685Z,2.45
2022-07-30T04:59:57.056Z,2.65
2022-07-30T05:02:30.753Z,2.45
2022-07-30T05:05:01.463Z,2.38
2022-07-30T05:07:31.872Z,2.05
2022-07-30T05:10:00.516Z,2.30
2022-07-30T05:12:34.556Z,2.30
2022-07-30T05:15:02.851Z,1.50
2022-07-30T05:17:32.618Z,1.80
2022-07-30T05:20:01.285Z,2.05
2022-07-30T05:22:31.344Z,1.90
2022-07-30T05:24:59.725Z,1.98
2022-07-30T05:27:28.394Z,1.83
2022-07-30T05:29:56.902Z,1.60
2022-07-30T05:32:27.112Z,1.80
2022-07-30T05:34:58.725Z,1.42
2022-07-30T05:37:27.124Z,1.58
2022-07-30T05:40:02.173Z,1.48
2022-07-30T05:42:31.992Z,1.50
2022-07-30T05:45:01.336Z,1.40
2022-07-30T05:47:30.012Z,1.35
2022-07-30T05:50:04.349Z,1.33
2022-07-30T05:52:33.237Z,1.20
2022-07-30T05:55:01.547Z,1.20
2022-07-30T05:57:30.206Z,0.90
2022-07-30T05:59:58.501Z,1.60
2022-07-30T06:02:27.402Z,1.40
2022-07-30T06:04:55.737Z,1.33
2022-07-30T06:07:25.563Z,1.10
2022-07-30T06:09:54.454Z,1.05
2022-07-30T06:12:22.982Z,1.00
2022-07-30T06:14:51.441Z,1.00
2022-07-30T06:17:19.891Z,0.70
2022-07-30T06:19:51.577Z,0.85
2022-07-30T06:22:25.561Z,0.70
2022-07-30T06:24:55.722Z,0.60
2022-07-30T06:27:28.910Z,0.80
2022-07-30T06:29:59.340Z,0.80
2022-07-30T06:32:27.710Z,1.08
2022-07-30T06:35:04.035Z,0.90
2022-07-30T06:37:59.368Z,0.90
2022-07-30T06:40:23.207Z,0.82
2022-07-30T06:42:51.407Z,0.90
2022-07-30T06:45:23.078Z,0.90
2022-07-30T06:47:51.530Z,1.00
2022-07-30T06:50:20.501Z,1.02
2022-07-30T06:52:49.786Z,1.10
2022-07-30T06:55:18.225Z,1.10
2022-07-30T06:57:48.402Z,1.00
2022-07-30T07:00:17.172Z,1.00
2022-07-30T07:02:45.477Z,1.17
2022-07-30T07:05:14.349Z,1.30
2022-07-30T07:07:49.100Z,0.90
2022-07-30T07:10:26.562Z,1.15
2022-07-30T07:12:56.305Z,1.33
2022-07-30T07:15:37.293Z,1.15
2022-07-30T07:18:07.138Z,1.05
2022-07-30T07:20:36.839Z,1.10
2022-07-30T07:23:09.207Z,1.10
2022-07-30T07:25:40.903Z,1.20
2022-07-30T07:28:13.424Z,1.63
2022-07-30T07:30:43.462Z,1.48
2022-07-30T07:33:13.240Z,1.02
2022-07-30T07:35:49.767Z,1.50
2022-07-30T07:38:19.199Z,1.13
2022-07-30T07:40:47.779Z,1.10
2022-07-30T07:43:17.786Z,1.40
2022-07-30T07:45:47.066Z,1.13
2022-07-30T07:48:15.427Z,1.38
2022-07-30T07:50:44.013Z,1.48
2022-07-30T07:53:13.046Z,1.08
2022-07-30T07:55:41.831Z,0.90
2022-07-30T07:58:14.721Z,1.00
2022-07-30T08:00:53.253Z,1.25
2022-07-30T08:03:21.639Z,1.30
2022-07-30T08:06:01.083Z,1.23
2022-07-30T08:08:37.316Z,1.20
2022-07-30T08:11:07.336Z,1.40
2022-07-30T08:13:51.952Z,1.20
2022-07-30T08:16:22.869Z,0.90
2022-07-30T08:18:51.326Z,0.93
2022-07-30T08:21:19.772Z,1.17
2022-07-30T08:23:47.986Z,0.93
2022-07-30T08:26:16.338Z,0.98
2022-07-30T08:28:45.877Z,1.00
2022-07-30T08:31:14.169Z,0.93
2022-07-30T08:33:43.835Z,0.77
2022-07-30T08:36:12.098Z,1.00
2022-07-30T08:38:40.698Z,1.02
2022-07-30T08:41:09.071Z,0.82
2022-07-30T08:43:38.671Z,0.90
2022-07-30T08:46:11.582Z,0.85
2022-07-30T08:48:42.455Z,1.00
2022-07-30T08:51:12.471Z,0.90
2022-07-30T08:53:41.716Z,0.80
2022-07-30T08:56:11.317Z,0.82
2022-07-30T08:58:39.718Z,1.17
2022-07-30T09:01:08.554Z,1.05
2022-07-30T09:03:43.904Z,0.90
2022-07-30T09:06:14.392Z,0.90
2022-07-30T09:08:43.187Z,0.90
2022-07-30T09:11:14.658Z,0.90
2022-07-30T09:13:44.920Z,0.98
2022-07-30T09:16:21.519Z,0.98
2022-07-30T09:18:50.084Z,1.38
2022-07-30T09:21:23.613Z,1.15
2022-07-30T09:24:00.025Z,1.30
2022-07-30T09:26:28.668Z,1.10
2022-07-30T09:28:57.377Z,0.88
2022-07-30T09:31:25.790Z,0.80
2022-07-30T09:33:54.349Z,1.23
2022-07-30T09:36:24.391Z,1.65
2022-07-30T09:38:54.293Z,1.10
2022-07-30T09:41:39.226Z,1.17
2022-07-30T09:44:08.612Z,1.23
2022-07-30T09:46:47.876Z,1.30
2022-07-30T09:49:18.578Z,1.45
2022-07-30T09:51:56.023Z,1.75
2022-07-30T09:54:26.689Z,1.50
2022-07-30T09:57:23.184Z,1.25
2022-07-30T09:59:56.654Z,1.63
2022-07-30T10:02:32.259Z,1.33
2022-07-30T10:05:14.485Z,1.33
2022-07-30T10:07:52.525Z,1.30
2022-07-30T10:10:25.720Z,1.33
2022-07-30T10:12:58.484Z,1.38
2022-07-30T10:15:32.529Z,1.40
2022-07-30T10:18:01.941Z,1.20
2022-07-30T10:20:30.384Z,1.30
2022-07-30T10:23:07.803Z,1.67
2022-07-30T10:25:49.455Z,1.52
2022-07-30T10:28:24.431Z,1.30
2022-07-30T10:30:54.949Z,1.50
2022-07-30T10:33:34.912Z,1.30
2022-07-30T10:36:06.418Z,1.52
2022-07-30T10:38:43.216Z,1.65
2022-07-30T10:41:42.532Z,1.27
2022-07-30T10:44:33.104Z,1.88
2022-07-30T10:47:06.874Z,1.63
2022-07-30T10:49:40.725Z,1.58
2022-07-30T10:52:11.131Z,1.60
2022-07-30T10:54:45.235Z,1.63
2022-07-30T10:57:31.721Z,1.77
2022-07-30T11:00:13.548Z,1.23
2022-07-30T11:03:20.654Z,1.40
2022-07-30T11:05:52.221Z,1.50
2022-07-30T11:08:32.464Z,1.30
2022-07-30T11:11:19.411Z,1.38
2022-07-30T11:13:57.633Z,1.38
2022-07-30T11:16:47.898Z,1.58
2022-07-30T11:19:56.432Z,1.45
2022-07-30T11:22:28.461Z,1.48
2022-07-30T11:24:58.114Z,1.50
2022-07-30T11:27:50.476Z,1.73
2022-07-30T11:30:36.332Z,1.48
2022-07-30T11:33:32.328Z,1.75
2022-07-30T11:36:12.536Z,1.55
2022-07-30T11:39:07.378Z,1.60
2022-07-30T11:41:36.176Z,1.42
2022-07-30T11:44:31.279Z,1.92
2022-07-30T11:47:00.517Z,1.42
2022-07-30T11:49:36.482Z,1.30
2022-07-30T11:52:05.272Z,1.67
2022-07-30T11:54:33.641Z,1.63
2022-07-30T11:57:04.630Z,1.55
2022-07-30T11:59:58.262Z,1.58
2022-07-30T12:02:28.837Z,1.45
2022-07-30T12:04:57.552Z,1.30
2022-07-30T12:07:26.201Z,1.20
2022-07-30T12:09:54.559Z,1.40
2022-07-30T12:12:25.144Z,1.23
2022-07-30T12:14:57.930Z,1.33
2022-07-30T12:17:42.733Z,1.67
2022-07-30T12:20:19.155Z,1.98
2022-07-30T12:22:47.996Z,1.38
2022-07-30T12:25:16.547Z,1.38
2022-07-30T12:27:52.026Z,1.40
2022-07-30T12:30:22.171Z,1.65
2022-07-30T12:32:50.835Z,1.65
2022-07-30T12:35:19.674Z,1.20
2022-07-30T12:38:04.495Z,1.27
2022-07-30T12:40:32.781Z,1.45
2022-07-30T12:43:01.146Z,1.25
2022-07-30T12:45:51.568Z,1.58
2022-07-30T12:48:22.529Z,1.17
2022-07-30T12:51:06.768Z,1.23
2022-07-30T12:53:35.417Z,1.35
2022-07-30T12:56:14.264Z,1.40
2022-07-30T12:58:43.506Z,1.38
2022-07-30T13:01:16.102Z,1.63
2022-07-30T13:03:45.682Z,1.55
2022-07-30T13:06:19.505Z,1.40
2022-07-30T13:08:51.193Z,1.55
2022-07-30T13:11:20.687Z,1.17
2022-07-30T13:13:50.319Z,1.30
2022-07-30T13:16:21.884Z,1.30
2022-07-30T13:18:50.308Z,1.42
2022-07-30T13:21:18.653Z,1.17
2022-07-30T13:23:46.916Z,1.55
2022-07-30T13:26:15.294Z,1.10
2022-07-30T13:28:43.617Z,1.30
2022-07-30T13:31:12.189Z,1.52
2022-07-30T13:33:42.756Z,1.27
2022-07-30T13:36:11.200Z,1.65
2022-07-30T13:38:39.924Z,1.63
2022-07-30T13:41:08.443Z,1.25
2022-07-30T13:43:36.815Z,1.63
2022-07-30T13:46:05.945Z,1.95
2022-07-30T13:48:35.913Z,1.90
2022-07-30T13:51:06.498Z,1.75
2022-07-30T13:53:34.807Z,1.67
2022-07-30T13:56:03.687Z,1.65
2022-07-30T13:58:36.020Z,1.45
2022-07-30T14:01:07.383Z,1.95
2022-07-30T14:03:36.651Z,1.60
2022-07-30T14:06:11.082Z,1.33
2022-07-30T14:08:39.702Z,1.80
2022-07-30T14:11:07.885Z,1.75
2022-07-30T14:13:36.312Z,1.63
2022-07-30T14:16:08.210Z,1.60
2022-07-30T14:18:46.381Z,1.30
2022-07-30T14:21:16.430Z,1.55
2022-07-30T14:23:44.686Z,1.60
2022-07-30T14:26:15.212Z,1.55
2022-07-30T14:28:43.593Z,1.67
2022-07-30T14:31:12.165Z,1.50
2022-07-30T14:33:40.626Z,1.60
2022-07-30T14:36:10.401Z,1.73
2022-07-30T14:38:40.293Z,1.52
2022-07-30T14:41:10.243Z,1.38
2022-07-30T14:43:41.401Z,1.60
2022-07-30T14:46:10.256Z,1.95
2022-07-30T14:48:38.478Z,1.73
2022-07-30T14:51:16.196Z,1.60
2022-07-30T14:53:50.898Z,1.67
2022-07-30T14:56:19.771Z,1.52
2022-07-30T14:58:48.128Z,1.60
2022-07-30T15:01:17.196Z,1.58
2022-07-30T15:03:46.048Z,1.85
2022-07-30T15:06:15.525Z,1.58
2022-07-30T15:08:44.064Z,1.58
2022-07-30T15:11:13.922Z,1.98
2022-07-30T15:13:50.211Z,1.63
2022-07-30T15:16:19.350Z,1.65
2022-07-30T15:18:47.733Z,1.75
2022-07-30T15:21:16.795Z,1.90
2022-07-30T15:23:46.199Z,1.85
2022-07-30T15:26:17.011Z,1.50
2022-07-30T15:28:45.236Z,1.73
2022-07-30T15:31:13.716Z,1.70
2022-07-30T15:33:43.435Z,1.75
2022-07-30T15:36:12.111Z,2.50
2022-07-30T15:38:40.759Z,1.65
2022-07-30T15:41:13.289Z,1.83
2022-07-30T15:43:43.535Z,1.50
2022-07-30T15:46:11.886Z,1.98
2022-07-30T15:48:40.162Z,2.00
2022-07-30T15:51:08.611Z,1.67
2022-07-30T15:53:36.836Z,1.63
2022-07-30T15:56:05.306Z,1.90
2022-07-30T15:58:33.855Z,1.88
2022-07-30T16:01:05.440Z,1.10
2022-07-30T16:03:33.834Z,1.63
2022-07-30T16:06:02.041Z,1.52
2022-07-30T16:08:30.686Z,1.58
2022-07-30T16:10:59.667Z,1.38
2022-07-30T16:13:29.094Z,1.27
2022-07-30T16:15:57.243Z,1.30
2022-07-30T16:18:27.091Z,1.13
2022-07-30T16:20:58.758Z,1.42
2022-07-30T16:23:27.301Z,1.60
2022-07-30T16:25:55.664Z,1.38
2022-07-30T16:28:24.355Z,1.02
2022-07-30T16:30:53.350Z,1.17
2022-07-30T16:33:21.722Z,1.65
2022-07-30T16:35:51.527Z,0.98
2022-07-30T16:38:20.223Z,1.23
2022-07-30T16:40:51.353Z,1.15
2022-07-30T16:43:20.862Z,1.10
2022-07-30T16:45:51.126Z,1.15
2022-07-30T16:48:20.705Z,1.23
2022-07-30T16:50:52.162Z,0.95
2022-07-30T16:53:20.807Z,1.20
2022-07-30T16:55:49.574Z,1.10
2022-07-30T16:58:18.238Z,1.00
2022-07-30T17:00:49.644Z,1.55
2022-07-30T17:03:20.039Z,1.20
2022-07-30T17:05:50.155Z,1.40
2022-07-30T17:08:18.767Z,1.20
2022-07-30T17:10:53.002Z,1.48
2022-07-30T17:13:22.000Z,0.80
2022-07-30T17:15:50.870Z,1.10
2022-07-30T17:18:19.299Z,1.48
2022-07-30T17:20:47.846Z,1.10
2022-07-30T17:23:17.816Z,1.13
2022-07-30T17:25:46.201Z,1.08
2022-07-30T17:28:14.818Z,1.20
2022-07-30T17:30:43.580Z,1.13
2022-07-30T17:33:11.842Z,0.70
2022-07-30T17:35:40.191Z,0.90
2022-07-30T17:38:09.567Z,0.85
2022-07-30T17:40:39.233Z,1.25
2022-07-30T17:43:07.985Z,1.00
2022-07-30T17:45:37.598Z,1.08
2022-07-30T17:48:07.129Z,1.20
2022-07-30T17:50:36.103Z,1.00
2022-07-30T17:53:05.908Z,1.10
2022-07-30T17:55:35.596Z,0.98
2022-07-30T17:58:06.406Z,0.60
2022-07-30T18:00:37.792Z,0.73
2022-07-30T18:03:06.251Z,0.80
2022-07-30T18:05:34.602Z,0.75
2022-07-30T18:08:04.223Z,0.80
2022-07-30T18:10:32.468Z,0.65
2022-07-30T18:13:25.959Z,0.70
2022-07-30T18:15:50.764Z,0.70
2022-07-30T18:18:19.898Z,0.60
2022-07-30T18:20:48.638Z,0.70
2022-07-30T18:23:19.329Z,0.70
2022-07-30T18:25:51.969Z,0.50
2022-07-30T18:28:22.973Z,0.90
2022-07-30T18:30:52.733Z,1.00
2022-07-30T18:33:21.244Z,0.68
2022-07-30T18:35:49.600Z,0.60
2022-07-30T18:38:17.921Z,0.50
2022-07-30T18:40:57.724Z,0.60
2022-07-30T18:43:27.245Z,0.80
2022-07-30T18:45:58.498Z,0.77
2022-07-30T18:48:27.055Z,0.73
2022-07-30T18:50:55.308Z,0.52
2022-07-30T18:53:23.806Z,0.80
2022-07-30T18:55:52.025Z,1.13
2022-07-30T18:58:21.175Z,2.10
2022-07-30T19:00:50.130Z,0.88
2022-07-30T19:03:23.001Z,0.50
2022-07-30T19:05:51.587Z,0.90
2022-07-30T19:08:19.882Z,0.88
2022-07-30T19:10:48.823Z,0.90
2022-07-30T19:13:17.132Z,0.98
2022-07-30T19:15:45.500Z,0.63
2022-07-30T19:18:13.725Z,1.73
2022-07-30T19:20:44.021Z,0.85
2022-07-30T19:23:12.397Z,4.75
2022-07-30T19:25:41.233Z,2.45
2022-07-30T19:28:11.462Z,1.15
2022-07-30T19:30:39.965Z,0.70
2022-07-30T19:33:14.636Z,0.70
2022-07-30T19:35:45.193Z,0.60
2022-07-30T19:38:21.377Z,0.63
2022-07-30T19:40:50.749Z,0.60
2022-07-30T19:43:23.752Z,0.68
2022-07-30T19:45:53.160Z,0.70
2022-07-30T19:48:28.535Z,0.80
2022-07-30T19:51:00.694Z,0.73
2022-07-30T19:53:31.480Z,0.88
2022-07-30T19:56:10.519Z,0.60
2022-07-30T19:58:40.117Z,0.52
2022-07-30T20:01:08.965Z,0.90
2022-07-30T20:03:38.981Z,1.02
2022-07-30T20:06:14.605Z,0.77
2022-07-30T20:08:57.928Z,0.75
2022-07-30T20:11:36.054Z,0.75
2022-07-30T20:14:05.218Z,0.98
2022-07-30T20:16:33.796Z,0.80
2022-07-30T20:19:03.297Z,0.70
2022-07-30T20:22:07.267Z,0.90
2022-07-30T20:24:22.694Z,0.60
2022-07-30T20:26:51.699Z,0.80
2022-07-30T20:29:20.655Z,0.80
2022-07-30T20:31:50.143Z,0.70
2022-07-30T20:34:23.609Z,0.63
2022-07-30T20:36:56.508Z,0.80
2022-07-30T20:39:25.517Z,0.60
2022-07-30T20:42:08.087Z,0.75
2022-07-30T20:44:37.395Z,0.65
2022-07-30T20:47:08.193Z,0.90
2022-07-30T20:49:37.245Z,0.98
2022-07-30T20:52:09.813Z,0.60
2022-07-30T20:54:42.331Z,0.68
2022-07-30T20:57:15.795Z,0.70
2022-07-30T20:59:48.589Z,0.52
2022-07-30T21:02:17.033Z,0.82
2022-07-30T21:04:59.477Z,0.95
2022-07-30T21:07:36.375Z,0.90
2022-07-30T21:10:07.410Z,0.70
2022-07-30T21:12:36.567Z,0.60
2022-07-30T21:15:05.537Z,0.60
2022-07-30T21:17:51.574Z,0.88
2022-07-30T21:20:27.800Z,0.70
2022-07-30T21:23:03.524Z,0.70
2022-07-30T21:25:32.812Z,1.10
2022-07-30T21:28:02.885Z,0.90
2022-07-30T21:30:32.772Z,1.30
2022-07-30T21:33:01.548Z,0.90
2022-07-30T21:35:32.140Z,0.80
2022-07-30T21:38:02.360Z,0.70
2022-07-30T21:40:31.265Z,0.70
2022-07-30T21:42:59.459Z,0.90
2022-07-30T21:45:38.128Z,0.68
2022-07-30T21:48:09.115Z,0.75
2022-07-30T21:50:40.168Z,0.80
2022-07-30T21:53:09.888Z,0.77
2022-07-30T21:55:52.675Z,0.80
2022-07-30T21:58:25.910Z,0.80
2022-07-30T22:01:16.454Z,0.80
2022-07-30T22:04:04.012Z,1.23
2022-07-30T22:06:34.446Z,0.70
2022-07-30T22:09:10.155Z,1.02
2022-07-30T22:11:48.381Z,0.70
2022-07-30T22:14:16.628Z,0.80
2022-07-30T22:16:46.396Z,0.77
2022-07-30T22:19:15.416Z,0.80
2022-07-30T22:24:33.755Z,0.85
2022-07-30T22:27:14.514Z,0.70
2022-07-30T22:29:43.627Z,0.90
2022-07-30T22:32:13.366Z,0.82
2022-07-30T22:34:43.166Z,0.75
2022-07-30T22:37:14.848Z,0.77
2022-07-30T22:39:50.965Z,0.75
2022-07-30T22:42:24.518Z,0.82
2022-07-30T22:44:55.370Z,0.95
2022-07-30T22:47:50.667Z,0.80
2022-07-30T22:50:12.989Z,0.70
2022-07-30T22:52:53.163Z,0.80
2022-07-30T22:55:28.721Z,0.80
2022-07-30T22:57:58.351Z,1.00
2022-07-30T23:00:27.025Z,0.80
2022-07-30T23:02:58.064Z,0.93
2022-07-30T23:05:26.736Z,0.70
2022-07-30T23:07:55.524Z,0.80
2022-07-30T23:10:25.731Z,0.60
2022-07-30T23:12:28.558Z,0.90
2022-07-30T23:12:57.585Z,0.70
2022-07-30T23:15:26.103Z,0.85
2022-07-30T23:17:54.462Z,1.10
2022-07-30T23:20:23.396Z,0.85
2022-07-30T23:22:51.826Z,0.90
2022-07-30T23:25:20.318Z,0.90
2022-07-30T23:27:48.565Z,0.82
2022-07-30T23:30:18.235Z,1.00
2022-07-30T23:32:46.600Z,0.75
2022-07-30T23:35:14.941Z,1.20
2022-07-30T23:37:48.937Z,0.90
2022-07-30T23:40:18.866Z,1.00
2022-07-30T23:42:50.269Z,0.90
2022-07-30T23:45:20.462Z,0.80
2022-07-30T23:48:00.763Z,0.90
2022-07-30T23:50:32.385Z,0.90
2022-07-30T23:53:01.320Z,0.85
2022-07-30T23:55:30.410Z,0.80
2022-07-30T23:57:59.239Z,0.90
